WAT230 KSLC-PHNL
Flight info
| Callsign | WAT230 |
|---|---|
| Flight time | 5h 58m |
| Altitude | 32000 |
| Route | DEZRT2 BAM J32 FMG PYE BEBOP R464 BITTA MAGGI3 |
| Aircraft | B763/H-SDE3FGHIM3RWXY/LB1 |
Departure
| Time | 2026-05-04 14:15 |
|---|---|
| Airport | Salt Lake City International Airport (KSLC) |
Arrival
| Time | 2026-05-04 20:13 |
|---|---|
| Airport | Daniel K. Inouye International Airport (PHNL) |
| Time | Latitude | Longitude | Altitude | Speed | Heading |
|---|---|---|---|---|---|
| 2026-05-04 13:47 | 40.78479 | -111.99085 | 4227 ft | 0 kts | 355° |
| 2026-05-04 14:05 | 40.78476 | -111.99084 | 4227 ft | 2 kts | 354° |
| 2026-05-04 14:06 | 40.78462 | -111.99080 | 4227 ft | 2 kts | 334° |
| 2026-05-04 14:06 | 40.78449 | -111.99069 | 4227 ft | 2 kts | 318° |
| 2026-05-04 14:06 | 40.78439 | -111.99055 | 4227 ft | 2 kts | 302° |
| 2026-05-04 14:06 | 40.78433 | -111.99037 | 4227 ft | 1 kts | 286° |
| 2026-05-04 14:07 | 40.78432 | -111.99032 | 4227 ft | 0 kts | 285° |
| 2026-05-04 14:08 | 40.78432 | -111.99033 | 4227 ft | 0 kts | 285° |
| 2026-05-04 14:08 | 40.78437 | -111.99065 | 4227 ft | 6 kts | 279° |
| 2026-05-04 14:09 | 40.78430 | -111.99275 | 4227 ft | 16 kts | 264° |
| 2026-05-04 14:09 | 40.78433 | -111.99409 | 4227 ft | 13 kts | 302° |
| 2026-05-04 14:10 | 40.78628 | -111.99459 | 4227 ft | 16 kts | 355° |
| 2026-05-04 14:10 | 40.78752 | -111.99473 | 4227 ft | 19 kts | 355° |
| 2026-05-04 14:10 | 40.78891 | -111.99489 | 4227 ft | 21 kts | 355° |
| 2026-05-04 14:10 | 40.79039 | -111.99507 | 4227 ft | 21 kts | 354° |
| 2026-05-04 14:11 | 40.79187 | -111.99527 | 4227 ft | 21 kts | 354° |
| 2026-05-04 14:11 | 40.79474 | -111.99554 | 4227 ft | 20 kts | 354° |
| 2026-05-04 14:11 | 40.79613 | -111.99571 | 4228 ft | 19 kts | 354° |
| 2026-05-04 14:12 | 40.79745 | -111.99587 | 4230 ft | 18 kts | 355° |
| 2026-05-04 14:12 | 40.79873 | -111.99603 | 4230 ft | 20 kts | 355° |
| 2026-05-04 14:12 | 40.80197 | -111.99641 | 4230 ft | 26 kts | 355° |
| 2026-05-04 14:13 | 40.80394 | -111.99663 | 4227 ft | 28 kts | 355° |
| 2026-05-04 14:13 | 40.80585 | -111.99684 | 4227 ft | 25 kts | 356° |
| 2026-05-04 14:13 | 40.80743 | -111.99731 | 4227 ft | 22 kts | 316° |
| 2026-05-04 14:13 | 40.80761 | -111.99889 | 4227 ft | 11 kts | 246° |
| 2026-05-04 14:14 | 40.80695 | -111.99916 | 4227 ft | 12 kts | 176° |
| 2026-05-04 14:14 | 40.79784 | -111.99810 | 4229 ft | 120 kts | 175° |
| 2026-05-04 14:14 | 40.78773 | -111.99691 | 4229 ft | 171 kts | 173° |
| 2026-05-04 14:15 | 40.76109 | -111.99719 | 5195 ft | 203 kts | 199° |
| 2026-05-04 14:15 | 40.74544 | -112.02593 | 6609 ft | 214 kts | 265° |
| 2026-05-04 14:16 | 40.75447 | -112.06427 | 7771 ft | 240 kts | 294° |
| 2026-05-04 14:16 | 40.76256 | -112.08420 | 8455 ft | 248 kts | 298° |
| 2026-05-04 14:17 | 40.78035 | -112.12279 | 9441 ft | 265 kts | 296° |
| 2026-05-04 14:17 | 40.78852 | -112.14576 | 9541 ft | 287 kts | 292° |
| 2026-05-04 14:17 | 40.80359 | -112.19594 | 10447 ft | 307 kts | 289° |
| 2026-05-04 14:18 | 40.81129 | -112.22344 | 10478 ft | 333 kts | 289° |
| 2026-05-04 14:18 | 40.82784 | -112.28162 | 11824 ft | 342 kts | 289° |
| 2026-05-04 14:19 | 40.84486 | -112.34126 | 13176 ft | 349 kts | 290° |
| 2026-05-04 14:19 | 40.85347 | -112.37157 | 13831 ft | 353 kts | 290° |
| 2026-05-04 14:19 | 40.86208 | -112.40192 | 14454 ft | 357 kts | 290° |
| 2026-05-04 14:19 | 40.86920 | -112.43335 | 15002 ft | 361 kts | 279° |
| 2026-05-04 14:20 | 40.86985 | -112.46639 | 15636 ft | 362 kts | 265° |
| 2026-05-04 14:20 | 40.86760 | -112.49982 | 16211 ft | 367 kts | 265° |
| 2026-05-04 14:20 | 40.86539 | -112.53363 | 16813 ft | 370 kts | 265° |
| 2026-05-04 14:21 | 40.86057 | -112.60184 | 17964 ft | 378 kts | 264° |
| 2026-05-04 14:21 | 40.85775 | -112.63666 | 18578 ft | 381 kts | 264° |
| 2026-05-04 14:21 | 40.85493 | -112.67142 | 19174 ft | 384 kts | 263° |
| 2026-05-04 14:21 | 40.85203 | -112.70673 | 19764 ft | 387 kts | 263° |
| 2026-05-04 14:22 | 40.84913 | -112.74217 | 20338 ft | 390 kts | 263° |
| 2026-05-04 14:22 | 40.84619 | -112.77808 | 20941 ft | 393 kts | 263° |
| 2026-05-04 14:22 | 40.84322 | -112.81408 | 21486 ft | 396 kts | 263° |
| 2026-05-04 14:22 | 40.84178 | -112.85060 | 22045 ft | 399 kts | 269° |
| 2026-05-04 14:23 | 40.84204 | -112.92416 | 23126 ft | 404 kts | 270° |
| 2026-05-04 14:23 | 40.84215 | -112.96188 | 23665 ft | 407 kts | 270° |
| 2026-05-04 14:23 | 40.84228 | -112.99929 | 24169 ft | 410 kts | 270° |
| 2026-05-04 14:24 | 40.84238 | -113.03735 | 24771 ft | 411 kts | 270° |
| 2026-05-04 14:24 | 40.84245 | -113.07495 | 25374 ft | 411 kts | 269° |
| 2026-05-04 14:24 | 40.84253 | -113.11261 | 25900 ft | 412 kts | 269° |
| 2026-05-04 14:24 | 40.84263 | -113.15043 | 26462 ft | 413 kts | 269° |
| 2026-05-04 14:25 | 40.84263 | -113.18821 | 27010 ft | 414 kts | 269° |
| 2026-05-04 14:25 | 40.84272 | -113.26423 | 28077 ft | 416 kts | 269° |
| 2026-05-04 14:25 | 40.84271 | -113.30293 | 28617 ft | 417 kts | 269° |
| 2026-05-04 14:26 | 40.84275 | -113.34086 | 29135 ft | 417 kts | 269° |
| 2026-05-04 14:26 | 40.84273 | -113.37926 | 29641 ft | 418 kts | 269° |
| 2026-05-04 14:26 | 40.84274 | -113.41795 | 30156 ft | 419 kts | 269° |
| 2026-05-04 14:26 | 40.84264 | -113.45589 | 30901 ft | 414 kts | 269° |
| 2026-05-04 14:27 | 40.84260 | -113.49453 | 30852 ft | 428 kts | 269° |
| 2026-05-04 14:27 | 40.84257 | -113.53421 | 30998 ft | 437 kts | 269° |
| 2026-05-04 14:27 | 40.84248 | -113.57423 | 31603 ft | 434 kts | 269° |
| 2026-05-04 14:27 | 40.84240 | -113.61439 | 31929 ft | 437 kts | 268° |
| 2026-05-04 14:28 | 40.84215 | -113.69400 | 31915 ft | 428 kts | 268° |
| 2026-05-04 14:28 | 40.84193 | -113.77268 | 31927 ft | 428 kts | 267° |
| 2026-05-04 14:29 | 40.84114 | -113.93010 | 31920 ft | 429 kts | 268° |
| 2026-05-04 14:30 | 40.84063 | -114.00880 | 31919 ft | 429 kts | 268° |
| 2026-05-04 14:31 | 40.83979 | -114.12886 | 31928 ft | 435 kts | 268° |
| 2026-05-04 14:32 | 40.83843 | -114.28822 | 31932 ft | 435 kts | 268° |
| 2026-05-04 14:32 | 40.83768 | -114.36832 | 31934 ft | 436 kts | 268° |
| 2026-05-04 14:33 | 40.83686 | -114.44903 | 31934 ft | 437 kts | 268° |
| 2026-05-04 14:33 | 40.83600 | -114.52949 | 31933 ft | 438 kts | 268° |
| 2026-05-04 14:34 | 40.83507 | -114.61015 | 31933 ft | 439 kts | 268° |
| 2026-05-04 14:34 | 40.83408 | -114.69101 | 31938 ft | 440 kts | 267° |
| 2026-05-04 14:35 | 40.83055 | -114.77136 | 31941 ft | 439 kts | 261° |
| 2026-05-04 14:35 | 40.82180 | -114.85160 | 31938 ft | 441 kts | 261° |
| 2026-05-04 14:36 | 40.81281 | -114.93192 | 31935 ft | 442 kts | 260° |
| 2026-05-04 14:36 | 40.80376 | -115.01170 | 31940 ft | 442 kts | 260° |
| 2026-05-04 14:37 | 40.79458 | -115.09194 | 31948 ft | 443 kts | 260° |
| 2026-05-04 14:37 | 40.78532 | -115.17233 | 31956 ft | 443 kts | 260° |
| 2026-05-04 14:38 | 40.77603 | -115.25241 | 31963 ft | 444 kts | 260° |
| 2026-05-04 14:38 | 40.76662 | -115.33302 | 31964 ft | 444 kts | 260° |
| 2026-05-04 14:39 | 40.75720 | -115.41328 | 31963 ft | 445 kts | 260° |
| 2026-05-04 14:39 | 40.74764 | -115.49417 | 31962 ft | 445 kts | 260° |
| 2026-05-04 14:40 | 40.73326 | -115.61489 | 31961 ft | 445 kts | 260° |
| 2026-05-04 14:40 | 40.72360 | -115.69540 | 31965 ft | 445 kts | 259° |
| 2026-05-04 14:41 | 40.71390 | -115.77573 | 31965 ft | 445 kts | 259° |
| 2026-05-04 14:42 | 40.69430 | -115.93665 | 31966 ft | 446 kts | 259° |
| 2026-05-04 14:42 | 40.68444 | -116.01687 | 31953 ft | 445 kts | 259° |
| 2026-05-04 14:43 | 40.67432 | -116.09863 | 31954 ft | 453 kts | 259° |
| 2026-05-04 14:43 | 40.66419 | -116.18009 | 31943 ft | 450 kts | 259° |
| 2026-05-04 14:44 | 40.65403 | -116.26132 | 31944 ft | 451 kts | 259° |
| 2026-05-04 14:44 | 40.64372 | -116.34319 | 31943 ft | 452 kts | 259° |
| 2026-05-04 14:45 | 40.63341 | -116.42458 | 31943 ft | 453 kts | 259° |
| 2026-05-04 14:45 | 40.62291 | -116.50699 | 31943 ft | 455 kts | 260° |
| 2026-05-04 14:46 | 40.61243 | -116.58880 | 31944 ft | 456 kts | 260° |
| 2026-05-04 14:46 | 40.60180 | -116.67127 | 31944 ft | 458 kts | 259° |
| 2026-05-04 14:47 | 40.59106 | -116.75418 | 31944 ft | 459 kts | 259° |
| 2026-05-04 14:47 | 40.58026 | -116.83695 | 31945 ft | 461 kts | 259° |
| 2026-05-04 14:48 | 40.56850 | -116.91961 | 31940 ft | 462 kts | 254° |
| 2026-05-04 14:48 | 40.54868 | -116.99982 | 31944 ft | 463 kts | 251° |
| 2026-05-04 14:49 | 40.52797 | -117.08006 | 31944 ft | 464 kts | 250° |
| 2026-05-04 14:49 | 40.50703 | -117.16038 | 31945 ft | 466 kts | 250° |
| 2026-05-04 14:50 | 40.48580 | -117.24137 | 31945 ft | 468 kts | 250° |
| 2026-05-04 14:50 | 40.46458 | -117.32204 | 31945 ft | 469 kts | 250° |
| 2026-05-04 14:51 | 40.44322 | -117.40298 | 31936 ft | 470 kts | 250° |
| 2026-05-04 14:51 | 40.42181 | -117.48384 | 31937 ft | 472 kts | 250° |
| 2026-05-04 14:52 | 40.40010 | -117.56556 | 31937 ft | 473 kts | 250° |
| 2026-05-04 14:52 | 40.37836 | -117.64713 | 31935 ft | 473 kts | 250° |
| 2026-05-04 14:53 | 40.35649 | -117.72888 | 31934 ft | 474 kts | 250° |
| 2026-05-04 14:53 | 40.33463 | -117.81037 | 31935 ft | 475 kts | 250° |
| 2026-05-04 14:54 | 40.31256 | -117.89236 | 31934 ft | 475 kts | 250° |
| 2026-05-04 14:54 | 40.29047 | -117.97414 | 31934 ft | 476 kts | 250° |
| 2026-05-04 14:55 | 40.26822 | -118.05624 | 31929 ft | 478 kts | 250° |
| 2026-05-04 14:55 | 40.24608 | -118.13771 | 31922 ft | 477 kts | 250° |
| 2026-05-04 14:56 | 40.22377 | -118.21950 | 31922 ft | 477 kts | 250° |
| 2026-05-04 14:56 | 40.20128 | -118.30173 | 31920 ft | 477 kts | 250° |
| 2026-05-04 14:57 | 40.17886 | -118.38339 | 31920 ft | 479 kts | 250° |
| 2026-05-04 14:57 | 40.15635 | -118.46513 | 31918 ft | 479 kts | 250° |
| 2026-05-04 14:58 | 40.13360 | -118.54666 | 31916 ft | 479 kts | 247° |
| 2026-05-04 14:58 | 40.10014 | -118.62206 | 31925 ft | 480 kts | 235° |
| 2026-05-04 14:59 | 40.06220 | -118.69340 | 31915 ft | 480 kts | 233° |
| 2026-05-04 15:00 | 40.00412 | -118.80050 | 31918 ft | 483 kts | 233° |
| 2026-05-04 15:00 | 39.96565 | -118.87103 | 31923 ft | 470 kts | 233° |
| 2026-05-04 15:01 | 39.90867 | -118.97513 | 31967 ft | 472 kts | 233° |
| 2026-05-04 15:01 | 39.87060 | -119.04448 | 31986 ft | 472 kts | 233° |
| 2026-05-04 15:02 | 39.83219 | -119.11431 | 31992 ft | 473 kts | 233° |
| 2026-05-04 15:02 | 39.79369 | -119.18415 | 31992 ft | 475 kts | 233° |
| 2026-05-04 15:03 | 39.75502 | -119.25413 | 31992 ft | 476 kts | 233° |
| 2026-05-04 15:03 | 39.71621 | -119.32423 | 31991 ft | 478 kts | 233° |
| 2026-05-04 15:04 | 39.67716 | -119.39458 | 31991 ft | 479 kts | 233° |
| 2026-05-04 15:04 | 39.63797 | -119.46503 | 31990 ft | 481 kts | 233° |
| 2026-05-04 15:05 | 39.59883 | -119.53526 | 31984 ft | 482 kts | 233° |
| 2026-05-04 15:05 | 39.55942 | -119.60579 | 31980 ft | 482 kts | 233° |
| 2026-05-04 15:06 | 39.52196 | -119.67818 | 31975 ft | 484 kts | 239° |
| 2026-05-04 15:07 | 39.47267 | -119.79237 | 31971 ft | 484 kts | 239° |
| 2026-05-04 15:07 | 39.43981 | -119.86844 | 31972 ft | 484 kts | 239° |
| 2026-05-04 15:08 | 39.40704 | -119.94417 | 31971 ft | 483 kts | 239° |
| 2026-05-04 15:08 | 39.37412 | -120.02005 | 31967 ft | 483 kts | 240° |
| 2026-05-04 15:09 | 39.34099 | -120.09623 | 31993 ft | 489 kts | 240° |
| 2026-05-04 15:09 | 39.30760 | -120.17284 | 32012 ft | 483 kts | 240° |
| 2026-05-04 15:10 | 39.25821 | -120.28579 | 32038 ft | 481 kts | 240° |
| 2026-05-04 15:11 | 39.20863 | -120.39879 | 32037 ft | 479 kts | 240° |
| 2026-05-04 15:11 | 39.17581 | -120.47334 | 32037 ft | 477 kts | 240° |
| 2026-05-04 15:12 | 39.14291 | -120.54792 | 32037 ft | 477 kts | 240° |
| 2026-05-04 15:12 | 39.11026 | -120.62175 | 32037 ft | 475 kts | 240° |
| 2026-05-04 15:13 | 39.07735 | -120.69598 | 32035 ft | 475 kts | 239° |
| 2026-05-04 15:13 | 39.04424 | -120.77048 | 32039 ft | 479 kts | 239° |
| 2026-05-04 15:14 | 39.01129 | -120.84448 | 32035 ft | 477 kts | 239° |
| 2026-05-04 15:14 | 38.97806 | -120.91891 | 32040 ft | 478 kts | 239° |
| 2026-05-04 15:15 | 38.94505 | -120.99269 | 32041 ft | 478 kts | 239° |
| 2026-05-04 15:15 | 38.91171 | -121.06702 | 32039 ft | 480 kts | 239° |
| 2026-05-04 15:16 | 38.86162 | -121.17836 | 32030 ft | 479 kts | 239° |
| 2026-05-04 15:17 | 38.81150 | -121.28938 | 32028 ft | 479 kts | 239° |
| 2026-05-04 15:17 | 38.76110 | -121.40064 | 32028 ft | 479 kts | 239° |
| 2026-05-04 15:18 | 38.72763 | -121.47432 | 32028 ft | 479 kts | 239° |
| 2026-05-04 15:19 | 38.67725 | -121.58488 | 32028 ft | 478 kts | 239° |
| 2026-05-04 15:19 | 38.62680 | -121.69520 | 32026 ft | 477 kts | 239° |
| 2026-05-04 15:20 | 38.59319 | -121.76849 | 32026 ft | 476 kts | 239° |
| 2026-05-04 15:20 | 38.55977 | -121.84122 | 32027 ft | 476 kts | 239° |
| 2026-05-04 15:21 | 38.52611 | -121.91428 | 32028 ft | 476 kts | 239° |
| 2026-05-04 15:22 | 38.47564 | -122.02354 | 32033 ft | 475 kts | 239° |
| 2026-05-04 15:22 | 38.42482 | -122.13316 | 32047 ft | 476 kts | 239° |
| 2026-05-04 15:23 | 38.39114 | -122.20561 | 32055 ft | 475 kts | 239° |
| 2026-05-04 15:23 | 38.35710 | -122.27866 | 32055 ft | 476 kts | 239° |
| 2026-05-04 15:24 | 38.28906 | -122.42419 | 32055 ft | 479 kts | 239° |
| 2026-05-04 15:25 | 38.25482 | -122.49720 | 32055 ft | 480 kts | 239° |
| 2026-05-04 15:26 | 38.20310 | -122.60714 | 32057 ft | 483 kts | 239° |
| 2026-05-04 15:26 | 38.15080 | -122.71791 | 32054 ft | 485 kts | 238° |
| 2026-05-04 15:27 | 38.09845 | -122.82844 | 32054 ft | 489 kts | 238° |
| 2026-05-04 15:28 | 38.04455 | -122.93963 | 32055 ft | 492 kts | 237° |
| 2026-05-04 15:29 | 37.98997 | -123.05058 | 32064 ft | 494 kts | 237° |
| 2026-05-04 15:30 | 37.86543 | -123.30239 | 32057 ft | 487 kts | 238° |
| 2026-05-04 15:31 | 37.81086 | -123.41210 | 32061 ft | 492 kts | 238° |
| 2026-05-04 15:32 | 37.71913 | -123.59573 | 32065 ft | 497 kts | 238° |
| 2026-05-04 15:34 | 37.62620 | -123.78074 | 32060 ft | 499 kts | 237° |
| 2026-05-04 15:34 | 37.57023 | -123.89165 | 32061 ft | 498 kts | 237° |
| 2026-05-04 15:35 | 37.51393 | -124.00284 | 32062 ft | 497 kts | 237° |
| 2026-05-04 15:36 | 37.45739 | -124.11414 | 32061 ft | 501 kts | 237° |
| 2026-05-04 15:36 | 37.41991 | -124.18771 | 32065 ft | 498 kts | 237° |
| 2026-05-04 15:37 | 37.38237 | -124.26124 | 32066 ft | 497 kts | 237° |
| 2026-05-04 15:37 | 37.34479 | -124.33467 | 32065 ft | 495 kts | 237° |
| 2026-05-04 15:38 | 37.30764 | -124.40712 | 32067 ft | 494 kts | 237° |
| 2026-05-04 15:38 | 37.27042 | -124.47954 | 32065 ft | 492 kts | 237° |
| 2026-05-04 15:39 | 37.23327 | -124.55168 | 32068 ft | 491 kts | 237° |
| 2026-05-04 15:40 | 37.17752 | -124.65963 | 32066 ft | 489 kts | 237° |
| 2026-05-04 15:40 | 37.14040 | -124.73129 | 32063 ft | 488 kts | 237° |
| 2026-05-04 15:41 | 37.10347 | -124.80246 | 32063 ft | 487 kts | 237° |
| 2026-05-04 15:41 | 37.06649 | -124.87357 | 32065 ft | 487 kts | 237° |
| 2026-05-04 15:42 | 37.02913 | -124.94525 | 32065 ft | 487 kts | 237° |
| 2026-05-04 15:42 | 36.99591 | -125.01868 | 32068 ft | 486 kts | 249° |
| 2026-05-04 15:43 | 36.97376 | -125.09877 | 32065 ft | 486 kts | 252° |
| 2026-05-04 15:43 | 36.95194 | -125.17943 | 32067 ft | 487 kts | 252° |
| 2026-05-04 15:44 | 36.93013 | -125.25996 | 32066 ft | 487 kts | 252° |
| 2026-05-04 15:44 | 36.90831 | -125.34029 | 32068 ft | 487 kts | 252° |
| 2026-05-04 15:45 | 36.88629 | -125.42115 | 32062 ft | 487 kts | 252° |
| 2026-05-04 15:45 | 36.86435 | -125.50144 | 32057 ft | 486 kts | 252° |
| 2026-05-04 15:46 | 36.84260 | -125.58083 | 32055 ft | 484 kts | 252° |
| 2026-05-04 15:46 | 36.82067 | -125.66061 | 32054 ft | 485 kts | 252° |
| 2026-05-04 15:47 | 36.79870 | -125.74035 | 32053 ft | 485 kts | 252° |
| 2026-05-04 15:47 | 36.77667 | -125.82003 | 32053 ft | 484 kts | 252° |
| 2026-05-04 15:48 | 36.75463 | -125.89951 | 32052 ft | 483 kts | 252° |
| 2026-05-04 15:48 | 36.72152 | -126.01844 | 32049 ft | 483 kts | 252° |
| 2026-05-04 15:49 | 36.69921 | -126.09830 | 32055 ft | 490 kts | 252° |
| 2026-05-04 15:49 | 36.67678 | -126.17835 | 32052 ft | 487 kts | 252° |
| 2026-05-04 15:50 | 36.65430 | -126.25836 | 32054 ft | 486 kts | 252° |
| 2026-05-04 15:50 | 36.63191 | -126.33780 | 32001 ft | 488 kts | 252° |
| 2026-05-04 15:51 | 36.60939 | -126.41743 | 32011 ft | 488 kts | 252° |
| 2026-05-04 15:51 | 36.58670 | -126.49745 | 32022 ft | 489 kts | 252° |
| 2026-05-04 15:52 | 36.56406 | -126.57706 | 32034 ft | 490 kts | 253° |
| 2026-05-04 15:52 | 36.54130 | -126.65690 | 32044 ft | 491 kts | 252° |
| 2026-05-04 15:53 | 36.51828 | -126.73735 | 32051 ft | 492 kts | 252° |
| 2026-05-04 15:53 | 36.49536 | -126.81727 | 32062 ft | 493 kts | 252° |
| 2026-05-04 15:54 | 36.47216 | -126.89790 | 32073 ft | 494 kts | 252° |
| 2026-05-04 15:54 | 36.44885 | -126.97858 | 32073 ft | 496 kts | 252° |
| 2026-05-04 15:55 | 36.42542 | -127.05936 | 32073 ft | 496 kts | 252° |
| 2026-05-04 15:55 | 36.40196 | -127.14002 | 32074 ft | 497 kts | 252° |
| 2026-05-04 15:56 | 36.37836 | -127.22095 | 32075 ft | 498 kts | 253° |
| 2026-05-04 15:56 | 36.35451 | -127.30246 | 32076 ft | 500 kts | 253° |
| 2026-05-04 15:57 | 36.33062 | -127.38388 | 32075 ft | 500 kts | 253° |
| 2026-05-04 15:57 | 36.30669 | -127.46521 | 32078 ft | 501 kts | 253° |
| 2026-05-04 15:58 | 36.28273 | -127.54641 | 32078 ft | 501 kts | 253° |
| 2026-05-04 15:58 | 36.25869 | -127.62763 | 32079 ft | 502 kts | 253° |
| 2026-05-04 15:59 | 36.23457 | -127.70888 | 32075 ft | 502 kts | 253° |
| 2026-05-04 15:59 | 36.21043 | -127.78996 | 32073 ft | 502 kts | 253° |
| 2026-05-04 16:00 | 36.18614 | -127.87134 | 32076 ft | 503 kts | 253° |
| 2026-05-04 16:00 | 36.16186 | -127.95242 | 32076 ft | 502 kts | 253° |
| 2026-05-04 16:01 | 36.13738 | -128.03395 | 32080 ft | 502 kts | 253° |
| 2026-05-04 16:01 | 36.11302 | -128.11484 | 32084 ft | 502 kts | 253° |
| 2026-05-04 16:02 | 36.08849 | -128.19608 | 32087 ft | 502 kts | 253° |
| 2026-05-04 16:03 | 36.05159 | -128.31779 | 32088 ft | 503 kts | 253° |
| 2026-05-04 16:03 | 36.02696 | -128.39880 | 32088 ft | 503 kts | 253° |
| 2026-05-04 16:04 | 36.00222 | -128.47987 | 32090 ft | 503 kts | 253° |
| 2026-05-04 16:04 | 35.96528 | -128.60057 | 32086 ft | 498 kts | 253° |
| 2026-05-04 16:05 | 35.94050 | -128.68126 | 32080 ft | 499 kts | 252° |
| 2026-05-04 16:06 | 35.90350 | -128.80124 | 32077 ft | 498 kts | 252° |
| 2026-05-04 16:07 | 35.85387 | -128.96149 | 32063 ft | 498 kts | 252° |
| 2026-05-04 16:08 | 35.80409 | -129.12131 | 32062 ft | 499 kts | 252° |
| 2026-05-04 16:09 | 35.74134 | -129.32150 | 32062 ft | 500 kts | 252° |
| 2026-05-04 16:10 | 35.69107 | -129.48093 | 32064 ft | 501 kts | 252° |
| 2026-05-04 16:11 | 35.64014 | -129.64157 | 32064 ft | 502 kts | 252° |
| 2026-05-04 16:12 | 35.56328 | -129.88235 | 32062 ft | 504 kts | 252° |
| 2026-05-04 16:13 | 35.51186 | -130.04233 | 32082 ft | 502 kts | 252° |
| 2026-05-04 16:14 | 35.46032 | -130.20186 | 32084 ft | 502 kts | 252° |
| 2026-05-04 16:16 | 35.39575 | -130.40048 | 32084 ft | 498 kts | 252° |
| 2026-05-04 16:17 | 35.33131 | -130.59740 | 32086 ft | 496 kts | 252° |
| 2026-05-04 16:18 | 35.27973 | -130.75412 | 32084 ft | 494 kts | 252° |
| 2026-05-04 16:19 | 35.21531 | -130.94870 | 32080 ft | 492 kts | 252° |
| 2026-05-04 16:20 | 35.15070 | -131.14261 | 32077 ft | 491 kts | 252° |
| 2026-05-04 16:22 | 35.08608 | -131.33534 | 32078 ft | 489 kts | 252° |
| 2026-05-04 16:23 | 35.00824 | -131.56589 | 32079 ft | 488 kts | 252° |
| 2026-05-04 16:25 | 34.93044 | -131.79459 | 32079 ft | 486 kts | 252° |
| 2026-05-04 16:26 | 34.83912 | -132.06084 | 32064 ft | 478 kts | 252° |
| 2026-05-04 16:28 | 34.77455 | -132.24783 | 32074 ft | 479 kts | 252° |
| 2026-05-04 16:29 | 34.68343 | -132.50978 | 32080 ft | 478 kts | 253° |
| 2026-05-04 16:31 | 34.61830 | -132.69566 | 32081 ft | 478 kts | 252° |
| 2026-05-04 16:32 | 34.53989 | -132.91797 | 32082 ft | 476 kts | 252° |
| 2026-05-04 16:33 | 34.48756 | -133.06551 | 32085 ft | 475 kts | 253° |
| 2026-05-04 16:34 | 34.44822 | -133.17595 | 32090 ft | 474 kts | 253° |
| 2026-05-04 16:35 | 34.36971 | -133.39526 | 32091 ft | 471 kts | 253° |
| 2026-05-04 16:36 | 34.33047 | -133.50429 | 32091 ft | 470 kts | 254° |
| 2026-05-04 16:37 | 34.29111 | -133.61333 | 32092 ft | 469 kts | 254° |
| 2026-05-04 16:38 | 34.23860 | -133.75818 | 32097 ft | 469 kts | 254° |
| 2026-05-04 16:39 | 34.17291 | -133.93849 | 32097 ft | 467 kts | 254° |
| 2026-05-04 16:40 | 34.12049 | -134.08165 | 32100 ft | 467 kts | 254° |
| 2026-05-04 16:41 | 34.05440 | -134.26128 | 32106 ft | 467 kts | 254° |
| 2026-05-04 16:43 | 33.98809 | -134.44058 | 32107 ft | 466 kts | 254° |
| 2026-05-04 16:43 | 33.94829 | -134.54781 | 32098 ft | 466 kts | 255° |
| 2026-05-04 16:45 | 33.86882 | -134.76085 | 32085 ft | 464 kts | 254° |
| 2026-05-04 16:46 | 33.80235 | -134.93797 | 32058 ft | 462 kts | 254° |
| 2026-05-04 16:47 | 33.74928 | -135.07872 | 32058 ft | 460 kts | 254° |
| 2026-05-04 16:48 | 33.69603 | -135.21936 | 32059 ft | 461 kts | 254° |
| 2026-05-04 16:49 | 33.64281 | -135.35930 | 32059 ft | 460 kts | 254° |
| 2026-05-04 16:50 | 33.58948 | -135.49898 | 32058 ft | 459 kts | 254° |
| 2026-05-04 16:51 | 33.54932 | -135.60378 | 32059 ft | 459 kts | 254° |
| 2026-05-04 16:52 | 33.49580 | -135.74291 | 32065 ft | 460 kts | 253° |
| 2026-05-04 16:53 | 33.45528 | -135.84787 | 32065 ft | 460 kts | 253° |
| 2026-05-04 16:54 | 33.40132 | -135.98714 | 32065 ft | 460 kts | 253° |
| 2026-05-04 16:55 | 33.32025 | -136.19530 | 32065 ft | 458 kts | 253° |
| 2026-05-04 16:56 | 33.25256 | -136.36815 | 32064 ft | 457 kts | 253° |
| 2026-05-04 16:57 | 33.21186 | -136.47166 | 32065 ft | 458 kts | 253° |
| 2026-05-04 16:58 | 33.15746 | -136.60951 | 32064 ft | 458 kts | 252° |
| 2026-05-04 17:00 | 33.07567 | -136.81572 | 32069 ft | 457 kts | 252° |
| 2026-05-04 17:01 | 33.00712 | -136.98763 | 32070 ft | 458 kts | 251° |
| 2026-05-04 17:02 | 32.95221 | -137.12470 | 32070 ft | 458 kts | 251° |
| 2026-05-04 17:03 | 32.91087 | -137.22752 | 32070 ft | 457 kts | 251° |
| 2026-05-04 17:03 | 32.86949 | -137.33015 | 32057 ft | 458 kts | 251° |
| 2026-05-04 17:04 | 32.81411 | -137.46703 | 32057 ft | 458 kts | 251° |
| 2026-05-04 17:05 | 32.75872 | -137.60341 | 32057 ft | 458 kts | 251° |
| 2026-05-04 17:06 | 32.71675 | -137.70638 | 32063 ft | 459 kts | 250° |
| 2026-05-04 17:07 | 32.67960 | -137.79730 | 32063 ft | 459 kts | 250° |
| 2026-05-04 17:07 | 32.64699 | -137.87689 | 32064 ft | 460 kts | 250° |
| 2026-05-04 17:08 | 32.60498 | -137.97917 | 32063 ft | 459 kts | 250° |
| 2026-05-04 17:09 | 32.57693 | -138.04732 | 32062 ft | 459 kts | 249° |
| 2026-05-04 17:09 | 32.54871 | -138.11571 | 32062 ft | 459 kts | 250° |
| 2026-05-04 17:10 | 32.47825 | -138.28590 | 32062 ft | 459 kts | 249° |
| 2026-05-04 17:11 | 32.45001 | -138.35390 | 32062 ft | 459 kts | 249° |
| 2026-05-04 17:12 | 32.40772 | -138.45548 | 32062 ft | 459 kts | 249° |
| 2026-05-04 17:13 | 32.33673 | -138.62534 | 32099 ft | 459 kts | 249° |
| 2026-05-04 17:14 | 32.27983 | -138.76090 | 32104 ft | 459 kts | 249° |
| 2026-05-04 17:15 | 32.23697 | -138.86269 | 32104 ft | 459 kts | 248° |
| 2026-05-04 17:16 | 32.17999 | -138.99753 | 32104 ft | 458 kts | 248° |
| 2026-05-04 17:17 | 32.12279 | -139.13240 | 32108 ft | 458 kts | 248° |
| 2026-05-04 17:18 | 32.06556 | -139.26685 | 32111 ft | 457 kts | 248° |
| 2026-05-04 17:19 | 32.00806 | -139.40141 | 32111 ft | 458 kts | 248° |
| 2026-05-04 17:20 | 31.95067 | -139.53523 | 32111 ft | 458 kts | 248° |
| 2026-05-04 17:20 | 31.90741 | -139.63577 | 32110 ft | 457 kts | 247° |
| 2026-05-04 17:21 | 31.84972 | -139.76939 | 32108 ft | 458 kts | 247° |
| 2026-05-04 17:22 | 31.82072 | -139.83641 | 32108 ft | 457 kts | 247° |
| 2026-05-04 17:23 | 31.76288 | -139.96965 | 32106 ft | 457 kts | 247° |
| 2026-05-04 17:24 | 31.71931 | -140.06972 | 32102 ft | 457 kts | 246° |
| 2026-05-04 17:25 | 31.66134 | -140.20242 | 32098 ft | 457 kts | 246° |
| 2026-05-04 17:26 | 31.60313 | -140.33519 | 32099 ft | 456 kts | 246° |
| 2026-05-04 17:27 | 31.53045 | -140.50032 | 32098 ft | 455 kts | 246° |
| 2026-05-04 17:28 | 31.47216 | -140.63220 | 32096 ft | 455 kts | 246° |
| 2026-05-04 17:29 | 31.38464 | -140.82936 | 32102 ft | 454 kts | 245° |
| 2026-05-04 17:31 | 31.31196 | -140.99228 | 32101 ft | 452 kts | 245° |
| 2026-05-04 17:32 | 31.23896 | -141.15521 | 32100 ft | 452 kts | 245° |
| 2026-05-04 17:33 | 31.18033 | -141.28557 | 32100 ft | 451 kts | 245° |
| 2026-05-04 17:34 | 31.12196 | -141.41476 | 32099 ft | 450 kts | 245° |
| 2026-05-04 17:35 | 31.04866 | -141.57632 | 32099 ft | 450 kts | 245° |
| 2026-05-04 17:36 | 31.01921 | -141.64105 | 32098 ft | 450 kts | 245° |
| 2026-05-04 17:36 | 30.99000 | -141.70514 | 32104 ft | 450 kts | 244° |
| 2026-05-04 17:37 | 30.96037 | -141.77002 | 32103 ft | 450 kts | 244° |
| 2026-05-04 17:37 | 30.93113 | -141.83397 | 32103 ft | 450 kts | 244° |
| 2026-05-04 17:38 | 30.90163 | -141.89836 | 32093 ft | 450 kts | 244° |
| 2026-05-04 17:38 | 30.87214 | -141.96263 | 32076 ft | 450 kts | 244° |
| 2026-05-04 17:39 | 30.82789 | -142.05885 | 32049 ft | 445 kts | 244° |
| 2026-05-04 17:39 | 30.79858 | -142.12247 | 32046 ft | 448 kts | 244° |
| 2026-05-04 17:40 | 30.76899 | -142.18655 | 32043 ft | 447 kts | 244° |
| 2026-05-04 17:40 | 30.73956 | -142.25020 | 32043 ft | 447 kts | 244° |
| 2026-05-04 17:41 | 30.71019 | -142.31363 | 32043 ft | 447 kts | 244° |
| 2026-05-04 17:41 | 30.68048 | -142.37767 | 32042 ft | 447 kts | 244° |
| 2026-05-04 17:42 | 30.65085 | -142.44142 | 32043 ft | 447 kts | 244° |
| 2026-05-04 17:42 | 30.62144 | -142.50461 | 32042 ft | 446 kts | 244° |
| 2026-05-04 17:43 | 30.59175 | -142.56830 | 32042 ft | 446 kts | 244° |
| 2026-05-04 17:43 | 30.56234 | -142.63126 | 32041 ft | 446 kts | 244° |
| 2026-05-04 17:44 | 30.53262 | -142.69479 | 32048 ft | 446 kts | 244° |
| 2026-05-04 17:44 | 30.50307 | -142.75787 | 32047 ft | 445 kts | 244° |
| 2026-05-04 17:45 | 30.47336 | -142.82117 | 32046 ft | 445 kts | 244° |
| 2026-05-04 17:45 | 30.44374 | -142.88420 | 32149 ft | 445 kts | 244° |
| 2026-05-04 17:46 | 30.41404 | -142.94727 | 32145 ft | 444 kts | 244° |
| 2026-05-04 17:46 | 30.38448 | -143.00995 | 32147 ft | 444 kts | 243° |
| 2026-05-04 17:47 | 30.35479 | -143.07280 | 32146 ft | 444 kts | 243° |
| 2026-05-04 17:47 | 30.32488 | -143.13602 | 32145 ft | 443 kts | 244° |
| 2026-05-04 17:48 | 30.29521 | -143.19861 | 32145 ft | 442 kts | 244° |
| 2026-05-04 17:48 | 30.26553 | -143.26115 | 32144 ft | 442 kts | 243° |
| 2026-05-04 17:49 | 30.23582 | -143.32365 | 32144 ft | 442 kts | 243° |
| 2026-05-04 17:49 | 30.20601 | -143.38625 | 32143 ft | 441 kts | 243° |
| 2026-05-04 17:50 | 30.17628 | -143.44859 | 32143 ft | 441 kts | 243° |
| 2026-05-04 17:50 | 30.14661 | -143.51068 | 32143 ft | 441 kts | 243° |
| 2026-05-04 17:51 | 30.11699 | -143.57260 | 32142 ft | 440 kts | 243° |
| 2026-05-04 17:51 | 30.08711 | -143.63495 | 32142 ft | 440 kts | 243° |
| 2026-05-04 17:52 | 30.05739 | -143.69685 | 32149 ft | 439 kts | 243° |
| 2026-05-04 17:52 | 30.02765 | -143.75873 | 32148 ft | 439 kts | 243° |
| 2026-05-04 17:53 | 29.99792 | -143.82047 | 32148 ft | 440 kts | 243° |
| 2026-05-04 17:53 | 29.96793 | -143.88264 | 32147 ft | 439 kts | 243° |
| 2026-05-04 17:54 | 29.93815 | -143.94431 | 32147 ft | 440 kts | 243° |
| 2026-05-04 17:54 | 29.90826 | -144.00609 | 32146 ft | 440 kts | 243° |
| 2026-05-04 17:55 | 29.87841 | -144.06770 | 32145 ft | 440 kts | 243° |
| 2026-05-04 17:55 | 29.84834 | -144.12967 | 32145 ft | 440 kts | 243° |
| 2026-05-04 17:56 | 29.81835 | -144.19136 | 32145 ft | 440 kts | 243° |
| 2026-05-04 17:56 | 29.78843 | -144.25282 | 32144 ft | 440 kts | 243° |
| 2026-05-04 17:57 | 29.75834 | -144.31455 | 32144 ft | 440 kts | 243° |
| 2026-05-04 17:57 | 29.72827 | -144.37611 | 32143 ft | 440 kts | 243° |
| 2026-05-04 17:58 | 29.69809 | -144.43784 | 32143 ft | 440 kts | 243° |
| 2026-05-04 17:58 | 29.66801 | -144.49924 | 32142 ft | 440 kts | 243° |
| 2026-05-04 17:59 | 29.63779 | -144.56084 | 32142 ft | 440 kts | 243° |
| 2026-05-04 18:00 | 29.59249 | -144.65300 | 32142 ft | 440 kts | 242° |
| 2026-05-04 18:00 | 29.56212 | -144.71468 | 32148 ft | 441 kts | 242° |
| 2026-05-04 18:01 | 29.53184 | -144.77606 | 32147 ft | 439 kts | 242° |
| 2026-05-04 18:01 | 29.50161 | -144.83727 | 32148 ft | 439 kts | 242° |
| 2026-05-04 18:02 | 29.45610 | -144.92921 | 32147 ft | 439 kts | 242° |
| 2026-05-04 18:02 | 29.42595 | -144.99002 | 32146 ft | 439 kts | 242° |
| 2026-05-04 18:03 | 29.39543 | -145.05148 | 32145 ft | 439 kts | 242° |
| 2026-05-04 18:03 | 29.36528 | -145.11209 | 32145 ft | 439 kts | 242° |
| 2026-05-04 18:04 | 29.33479 | -145.17331 | 32145 ft | 439 kts | 242° |
| 2026-05-04 18:05 | 29.28907 | -145.26492 | 32144 ft | 439 kts | 242° |
| 2026-05-04 18:05 | 29.25872 | -145.32562 | 32144 ft | 439 kts | 242° |
| 2026-05-04 18:06 | 29.21296 | -145.41698 | 32143 ft | 439 kts | 242° |
| 2026-05-04 18:06 | 29.18232 | -145.47801 | 32143 ft | 439 kts | 242° |
| 2026-05-04 18:07 | 29.15194 | -145.53847 | 32142 ft | 439 kts | 242° |
| 2026-05-04 18:07 | 29.12132 | -145.59929 | 32141 ft | 439 kts | 242° |
| 2026-05-04 18:08 | 29.09069 | -145.66003 | 32145 ft | 439 kts | 242° |
| 2026-05-04 18:08 | 29.06002 | -145.72078 | 32148 ft | 440 kts | 242° |
| 2026-05-04 18:09 | 28.99878 | -145.84181 | 32148 ft | 440 kts | 242° |
| 2026-05-04 18:10 | 28.96795 | -145.90262 | 32147 ft | 440 kts | 242° |
| 2026-05-04 18:10 | 28.93719 | -145.96317 | 32147 ft | 442 kts | 242° |
| 2026-05-04 18:11 | 28.90619 | -146.02414 | 32148 ft | 440 kts | 242° |
| 2026-05-04 18:11 | 28.87545 | -146.08447 | 32146 ft | 438 kts | 242° |
| 2026-05-04 18:12 | 28.84472 | -146.14471 | 32146 ft | 440 kts | 242° |
| 2026-05-04 18:12 | 28.81399 | -146.20487 | 32144 ft | 440 kts | 242° |
| 2026-05-04 18:13 | 28.78299 | -146.26546 | 32149 ft | 437 kts | 242° |
| 2026-05-04 18:14 | 28.73736 | -146.35448 | 32146 ft | 435 kts | 241° |
| 2026-05-04 18:14 | 28.70668 | -146.41422 | 32142 ft | 435 kts | 241° |
| 2026-05-04 18:15 | 28.64526 | -146.53358 | 32142 ft | 435 kts | 241° |
| 2026-05-04 18:16 | 28.61463 | -146.59297 | 32141 ft | 435 kts | 241° |
| 2026-05-04 18:16 | 28.58403 | -146.65224 | 32141 ft | 435 kts | 241° |
| 2026-05-04 18:17 | 28.53792 | -146.74136 | 32147 ft | 434 kts | 241° |
| 2026-05-04 18:18 | 28.49172 | -146.83048 | 32148 ft | 434 kts | 241° |
| 2026-05-04 18:18 | 28.46107 | -146.88950 | 32147 ft | 434 kts | 241° |
| 2026-05-04 18:19 | 28.41494 | -146.97815 | 32146 ft | 434 kts | 241° |
| 2026-05-04 18:19 | 28.38406 | -147.03740 | 32146 ft | 434 kts | 241° |
| 2026-05-04 18:20 | 28.35324 | -147.09644 | 32145 ft | 433 kts | 241° |
| 2026-05-04 18:20 | 28.32239 | -147.15546 | 32145 ft | 433 kts | 241° |
| 2026-05-04 18:21 | 28.29161 | -147.21428 | 32144 ft | 433 kts | 241° |
| 2026-05-04 18:21 | 28.25563 | -147.28291 | 32087 ft | 433 kts | 241° |
| 2026-05-04 18:22 | 28.23006 | -147.33162 | 32088 ft | 432 kts | 241° |
| 2026-05-04 18:22 | 28.19936 | -147.39003 | 32087 ft | 433 kts | 241° |
| 2026-05-04 18:23 | 28.16845 | -147.44876 | 32087 ft | 433 kts | 241° |
| 2026-05-04 18:23 | 28.13742 | -147.50764 | 32087 ft | 433 kts | 241° |
| 2026-05-04 18:24 | 28.10643 | -147.56636 | 32086 ft | 432 kts | 241° |
| 2026-05-04 18:24 | 28.07541 | -147.62505 | 32085 ft | 433 kts | 241° |
| 2026-05-04 18:25 | 28.04449 | -147.68347 | 32094 ft | 433 kts | 241° |
| 2026-05-04 18:25 | 28.01346 | -147.74200 | 32092 ft | 432 kts | 241° |
| 2026-05-04 18:26 | 27.98255 | -147.80025 | 32093 ft | 432 kts | 241° |
| 2026-05-04 18:26 | 27.95151 | -147.85866 | 32093 ft | 432 kts | 241° |
| 2026-05-04 18:27 | 27.92032 | -147.91728 | 32108 ft | 432 kts | 241° |
| 2026-05-04 18:27 | 27.88942 | -147.97525 | 32124 ft | 432 kts | 241° |
| 2026-05-04 18:28 | 27.85822 | -148.03371 | 32139 ft | 432 kts | 241° |
| 2026-05-04 18:28 | 27.82716 | -148.09180 | 32153 ft | 432 kts | 241° |
| 2026-05-04 18:29 | 27.79595 | -148.15010 | 32154 ft | 432 kts | 241° |
| 2026-05-04 18:29 | 27.75968 | -148.21776 | 32154 ft | 433 kts | 241° |
| 2026-05-04 18:30 | 27.71794 | -148.29550 | 32153 ft | 433 kts | 241° |
| 2026-05-04 18:31 | 27.68647 | -148.35400 | 32152 ft | 433 kts | 241° |
| 2026-05-04 18:31 | 27.65514 | -148.41219 | 32151 ft | 433 kts | 241° |
| 2026-05-04 18:32 | 27.62386 | -148.47018 | 32151 ft | 434 kts | 241° |
| 2026-05-04 18:32 | 27.59227 | -148.52869 | 32150 ft | 434 kts | 241° |
| 2026-05-04 18:33 | 27.56086 | -148.58678 | 32150 ft | 434 kts | 241° |
| 2026-05-04 18:33 | 27.52939 | -148.64490 | 32149 ft | 434 kts | 241° |
| 2026-05-04 18:34 | 27.49768 | -148.70338 | 32157 ft | 435 kts | 240° |
| 2026-05-04 18:34 | 27.46595 | -148.76183 | 32157 ft | 436 kts | 240° |
| 2026-05-04 18:35 | 27.43427 | -148.82011 | 32156 ft | 436 kts | 240° |
| 2026-05-04 18:35 | 27.40243 | -148.87860 | 32157 ft | 436 kts | 240° |
| 2026-05-04 18:36 | 27.37071 | -148.93678 | 32155 ft | 436 kts | 240° |
| 2026-05-04 18:36 | 27.33902 | -148.99484 | 32155 ft | 438 kts | 240° |
| 2026-05-04 18:37 | 27.30702 | -149.05337 | 32155 ft | 437 kts | 240° |
| 2026-05-04 18:37 | 27.27493 | -149.11202 | 32154 ft | 437 kts | 240° |
| 2026-05-04 18:38 | 27.24301 | -149.17027 | 32154 ft | 437 kts | 240° |
| 2026-05-04 18:38 | 27.21106 | -149.22850 | 32153 ft | 437 kts | 240° |
| 2026-05-04 18:39 | 27.17896 | -149.28691 | 32153 ft | 438 kts | 240° |
| 2026-05-04 18:39 | 27.14693 | -149.34512 | 32152 ft | 437 kts | 240° |
| 2026-05-04 18:40 | 27.11497 | -149.40314 | 32152 ft | 437 kts | 240° |
| 2026-05-04 18:40 | 27.08285 | -149.46137 | 32151 ft | 437 kts | 240° |
| 2026-05-04 18:41 | 27.05065 | -149.51967 | 32151 ft | 438 kts | 240° |
| 2026-05-04 18:41 | 27.01838 | -149.57799 | 32150 ft | 438 kts | 240° |
| 2026-05-04 18:42 | 26.98648 | -149.63559 | 32150 ft | 438 kts | 240° |
| 2026-05-04 18:42 | 26.95422 | -149.69376 | 32158 ft | 438 kts | 240° |
| 2026-05-04 18:43 | 26.91667 | -149.76135 | 32157 ft | 437 kts | 240° |
| 2026-05-04 18:43 | 26.89000 | -149.80934 | 32157 ft | 438 kts | 240° |
| 2026-05-04 18:44 | 26.85761 | -149.86751 | 32156 ft | 439 kts | 240° |
| 2026-05-04 18:44 | 26.82526 | -149.92554 | 32156 ft | 438 kts | 240° |
| 2026-05-04 18:45 | 26.79310 | -149.98315 | 32155 ft | 438 kts | 240° |
| 2026-05-04 18:45 | 26.76053 | -150.04141 | 32155 ft | 439 kts | 240° |
| 2026-05-04 18:46 | 26.72811 | -150.09937 | 32154 ft | 439 kts | 240° |
| 2026-05-04 18:46 | 26.69575 | -150.15710 | 32154 ft | 439 kts | 240° |
| 2026-05-04 18:47 | 26.66316 | -150.21518 | 32154 ft | 439 kts | 240° |
| 2026-05-04 18:47 | 26.63062 | -150.27310 | 32153 ft | 439 kts | 240° |
| 2026-05-04 18:48 | 26.59807 | -150.33096 | 32152 ft | 439 kts | 240° |
| 2026-05-04 18:48 | 26.56544 | -150.38888 | 32152 ft | 439 kts | 240° |
| 2026-05-04 18:49 | 26.53286 | -150.44664 | 32151 ft | 439 kts | 240° |
| 2026-05-04 18:49 | 26.50019 | -150.50450 | 32151 ft | 440 kts | 240° |
| 2026-05-04 18:50 | 26.46756 | -150.56221 | 32151 ft | 439 kts | 240° |
| 2026-05-04 18:50 | 26.43466 | -150.62032 | 32150 ft | 440 kts | 240° |
| 2026-05-04 18:51 | 26.40202 | -150.67789 | 32159 ft | 440 kts | 240° |
| 2026-05-04 18:51 | 26.36926 | -150.73561 | 32157 ft | 440 kts | 240° |
| 2026-05-04 18:52 | 26.33651 | -150.79323 | 32157 ft | 440 kts | 240° |
| 2026-05-04 18:52 | 26.30366 | -150.85095 | 32156 ft | 440 kts | 240° |
| 2026-05-04 18:53 | 26.27098 | -150.90830 | 32156 ft | 440 kts | 240° |
| 2026-05-04 18:53 | 26.23801 | -150.96609 | 32156 ft | 440 kts | 240° |
| 2026-05-04 18:54 | 26.20503 | -151.02382 | 32155 ft | 440 kts | 240° |
| 2026-05-04 18:54 | 26.17211 | -151.08139 | 32155 ft | 441 kts | 240° |
| 2026-05-04 18:55 | 26.13915 | -151.13895 | 32154 ft | 442 kts | 240° |
| 2026-05-04 18:55 | 26.08385 | -151.23535 | 32154 ft | 442 kts | 240° |
| 2026-05-04 18:56 | 26.05629 | -151.28332 | 32154 ft | 442 kts | 240° |
| 2026-05-04 18:56 | 26.02317 | -151.34090 | 32153 ft | 442 kts | 240° |
| 2026-05-04 18:57 | 25.98994 | -151.39859 | 32152 ft | 442 kts | 240° |
| 2026-05-04 18:57 | 25.95694 | -151.45583 | 32153 ft | 443 kts | 240° |
| 2026-05-04 18:58 | 25.92365 | -151.51347 | 32152 ft | 443 kts | 240° |
| 2026-05-04 18:58 | 25.89034 | -151.57111 | 32151 ft | 443 kts | 240° |
| 2026-05-04 18:59 | 25.85694 | -151.62878 | 32150 ft | 443 kts | 240° |
| 2026-05-04 18:59 | 25.81787 | -151.69621 | 32157 ft | 444 kts | 239° |
| 2026-05-04 19:00 | 25.78997 | -151.74428 | 32157 ft | 443 kts | 239° |
| 2026-05-04 19:00 | 25.75653 | -151.80185 | 32157 ft | 444 kts | 239° |
| 2026-05-04 19:01 | 25.72296 | -151.85954 | 32156 ft | 444 kts | 239° |
| 2026-05-04 19:01 | 25.68501 | -151.92471 | 32155 ft | 444 kts | 239° |
| 2026-05-04 19:02 | 25.65685 | -151.97299 | 32155 ft | 443 kts | 239° |
| 2026-05-04 19:02 | 25.62352 | -152.03008 | 32155 ft | 443 kts | 239° |
| 2026-05-04 19:03 | 25.58973 | -152.08789 | 32154 ft | 444 kts | 239° |
| 2026-05-04 19:03 | 25.55614 | -152.14526 | 32154 ft | 444 kts | 239° |
| 2026-05-04 19:04 | 25.52258 | -152.20254 | 32154 ft | 444 kts | 239° |
| 2026-05-04 19:04 | 25.48904 | -152.25970 | 32153 ft | 444 kts | 239° |
| 2026-05-04 19:05 | 25.45536 | -152.31705 | 32153 ft | 443 kts | 239° |
| 2026-05-04 19:05 | 25.41598 | -152.38399 | 32152 ft | 444 kts | 239° |
| 2026-05-04 19:06 | 25.38777 | -152.43188 | 32152 ft | 444 kts | 239° |
| 2026-05-04 19:06 | 25.35416 | -152.48889 | 32152 ft | 444 kts | 239° |
| 2026-05-04 19:07 | 25.32046 | -152.54599 | 32151 ft | 444 kts | 239° |
| 2026-05-04 19:07 | 25.28650 | -152.60344 | 32151 ft | 444 kts | 239° |
| 2026-05-04 19:08 | 25.25277 | -152.66046 | 32154 ft | 444 kts | 239° |
| 2026-05-04 19:08 | 25.21884 | -152.71773 | 32158 ft | 444 kts | 239° |
| 2026-05-04 19:09 | 25.18510 | -152.77461 | 32157 ft | 444 kts | 239° |
| 2026-05-04 19:09 | 25.14550 | -152.84126 | 32157 ft | 444 kts | 239° |
| 2026-05-04 19:10 | 25.11735 | -152.88861 | 32157 ft | 444 kts | 239° |
| 2026-05-04 19:10 | 25.08327 | -152.94586 | 32156 ft | 444 kts | 239° |
| 2026-05-04 19:11 | 25.04368 | -153.01227 | 32156 ft | 444 kts | 239° |
| 2026-05-04 19:11 | 25.00980 | -153.06905 | 32155 ft | 443 kts | 239° |
| 2026-05-04 19:12 | 24.95881 | -153.15436 | 32155 ft | 444 kts | 239° |
| 2026-05-04 19:13 | 24.92474 | -153.21127 | 32154 ft | 444 kts | 239° |
| 2026-05-04 19:13 | 24.89645 | -153.25847 | 32154 ft | 444 kts | 239° |
| 2026-05-04 19:14 | 24.85673 | -153.32468 | 32152 ft | 444 kts | 239° |
| 2026-05-04 19:14 | 24.82258 | -153.38152 | 32152 ft | 444 kts | 239° |
| 2026-05-04 19:15 | 24.78867 | -153.43790 | 32151 ft | 443 kts | 239° |
| 2026-05-04 19:15 | 24.75455 | -153.49455 | 32151 ft | 443 kts | 239° |
| 2026-05-04 19:16 | 24.72602 | -153.54189 | 32151 ft | 443 kts | 239° |
| 2026-05-04 19:16 | 24.69209 | -153.59811 | 32150 ft | 443 kts | 239° |
| 2026-05-04 19:17 | 24.65804 | -153.65448 | 32151 ft | 443 kts | 239° |
| 2026-05-04 19:17 | 24.62385 | -153.71100 | 32157 ft | 443 kts | 239° |
| 2026-05-04 19:18 | 24.58958 | -153.76759 | 32157 ft | 443 kts | 239° |
| 2026-05-04 19:18 | 24.54977 | -153.83325 | 32157 ft | 443 kts | 239° |
| 2026-05-04 19:19 | 24.52139 | -153.88001 | 32156 ft | 442 kts | 239° |
| 2026-05-04 19:19 | 24.48717 | -153.93631 | 32156 ft | 442 kts | 239° |
| 2026-05-04 19:20 | 24.45307 | -153.99237 | 32155 ft | 442 kts | 239° |
| 2026-05-04 19:20 | 24.41900 | -154.04829 | 32155 ft | 442 kts | 239° |
| 2026-05-04 19:21 | 24.38463 | -154.10467 | 32155 ft | 442 kts | 239° |
| 2026-05-04 19:21 | 24.34471 | -154.17006 | 32154 ft | 442 kts | 239° |
| 2026-05-04 19:22 | 24.31061 | -154.22584 | 32153 ft | 442 kts | 239° |
| 2026-05-04 19:22 | 24.27610 | -154.28197 | 32153 ft | 442 kts | 239° |
| 2026-05-04 19:23 | 24.24165 | -154.33772 | 32153 ft | 442 kts | 239° |
| 2026-05-04 19:23 | 24.21308 | -154.38391 | 32152 ft | 443 kts | 239° |
| 2026-05-04 19:24 | 24.17276 | -154.44902 | 32152 ft | 443 kts | 239° |
| 2026-05-04 19:24 | 24.14385 | -154.49567 | 32152 ft | 443 kts | 239° |
| 2026-05-04 19:25 | 24.10945 | -154.55110 | 32151 ft | 443 kts | 239° |
| 2026-05-04 19:25 | 24.07470 | -154.60704 | 32151 ft | 443 kts | 239° |
| 2026-05-04 19:26 | 24.03432 | -154.67197 | 32159 ft | 443 kts | 238° |
| 2026-05-04 19:26 | 24.00539 | -154.71841 | 32158 ft | 443 kts | 238° |
| 2026-05-04 19:27 | 23.96497 | -154.78323 | 32157 ft | 442 kts | 238° |
| 2026-05-04 19:27 | 23.93615 | -154.82942 | 32158 ft | 442 kts | 238° |
| 2026-05-04 19:28 | 23.90142 | -154.88501 | 32157 ft | 442 kts | 238° |
| 2026-05-04 19:28 | 23.86674 | -154.94047 | 32155 ft | 441 kts | 238° |
| 2026-05-04 19:29 | 23.83212 | -154.99576 | 32155 ft | 442 kts | 238° |
| 2026-05-04 19:29 | 23.79151 | -155.06055 | 32154 ft | 442 kts | 238° |
| 2026-05-04 19:30 | 23.76279 | -155.10631 | 32154 ft | 442 kts | 238° |
| 2026-05-04 19:30 | 23.72788 | -155.16188 | 32153 ft | 442 kts | 238° |
| 2026-05-04 19:31 | 23.69312 | -155.21715 | 32153 ft | 442 kts | 238° |
| 2026-05-04 19:31 | 23.65257 | -155.28155 | 32153 ft | 442 kts | 238° |
| 2026-05-04 19:32 | 23.62357 | -155.32756 | 32152 ft | 442 kts | 238° |
| 2026-05-04 19:32 | 23.58854 | -155.38309 | 32152 ft | 442 kts | 238° |
| 2026-05-04 19:33 | 23.54773 | -155.44753 | 32150 ft | 443 kts | 237° |
| 2026-05-04 19:33 | 23.51225 | -155.48781 | 32154 ft | 450 kts | 222° |
| 2026-05-04 19:34 | 23.45187 | -155.53348 | 32150 ft | 453 kts | 218° |
| 2026-05-04 19:34 | 23.39943 | -155.57167 | 32151 ft | 453 kts | 218° |
| 2026-05-04 19:35 | 23.34706 | -155.60956 | 32150 ft | 453 kts | 218° |
| 2026-05-04 19:35 | 23.30357 | -155.64093 | 32150 ft | 453 kts | 218° |
| 2026-05-04 19:36 | 23.25114 | -155.67871 | 32159 ft | 453 kts | 217° |
| 2026-05-04 19:36 | 23.19852 | -155.71657 | 32158 ft | 453 kts | 217° |
| 2026-05-04 19:37 | 23.13707 | -155.76076 | 32158 ft | 453 kts | 217° |
| 2026-05-04 19:37 | 23.09333 | -155.79217 | 32158 ft | 453 kts | 217° |
| 2026-05-04 19:38 | 23.03205 | -155.83614 | 32157 ft | 452 kts | 217° |
| 2026-05-04 19:38 | 22.97982 | -155.87358 | 32157 ft | 453 kts | 217° |
| 2026-05-04 19:39 | 22.92712 | -155.91133 | 32156 ft | 452 kts | 217° |
| 2026-05-04 19:39 | 22.88349 | -155.94253 | 32155 ft | 452 kts | 217° |
| 2026-05-04 19:40 | 22.82217 | -155.98637 | 32155 ft | 452 kts | 217° |
| 2026-05-04 19:40 | 22.77820 | -156.01778 | 32155 ft | 452 kts | 217° |
| 2026-05-04 19:41 | 22.71720 | -156.06130 | 32156 ft | 452 kts | 217° |
| 2026-05-04 19:41 | 22.66446 | -156.09889 | 32157 ft | 453 kts | 217° |
| 2026-05-04 19:42 | 22.61200 | -156.13626 | 32159 ft | 453 kts | 217° |
| 2026-05-04 19:42 | 22.56820 | -156.16742 | 32160 ft | 452 kts | 217° |
| 2026-05-04 19:43 | 22.51541 | -156.20494 | 32161 ft | 452 kts | 217° |
| 2026-05-04 19:43 | 22.45404 | -156.24854 | 32162 ft | 452 kts | 217° |
| 2026-05-04 19:44 | 22.40170 | -156.28566 | 32162 ft | 452 kts | 217° |
| 2026-05-04 19:44 | 22.35747 | -156.31703 | 32162 ft | 453 kts | 217° |
| 2026-05-04 19:45 | 22.30256 | -156.36832 | 32123 ft | 447 kts | 232° |
| 2026-05-04 19:45 | 22.28227 | -156.39420 | 31626 ft | 452 kts | 233° |
| 2026-05-04 19:45 | 22.26884 | -156.41145 | 31284 ft | 450 kts | 233° |
| 2026-05-04 19:45 | 22.24233 | -156.44572 | 30834 ft | 443 kts | 233° |
| 2026-05-04 19:46 | 22.22918 | -156.46274 | 30825 ft | 431 kts | 233° |
| 2026-05-04 19:46 | 22.20438 | -156.49489 | 30621 ft | 414 kts | 233° |
| 2026-05-04 19:46 | 22.18589 | -156.51892 | 29987 ft | 413 kts | 233° |
| 2026-05-04 19:46 | 22.16773 | -156.54250 | 29423 ft | 410 kts | 233° |
| 2026-05-04 19:47 | 22.14967 | -156.56595 | 28890 ft | 407 kts | 233° |
| 2026-05-04 19:47 | 22.13155 | -156.58946 | 28361 ft | 404 kts | 233° |
| 2026-05-04 19:47 | 22.11374 | -156.61256 | 27859 ft | 401 kts | 233° |
| 2026-05-04 19:47 | 22.09586 | -156.63574 | 27364 ft | 399 kts | 233° |
| 2026-05-04 19:48 | 22.08423 | -156.65080 | 27047 ft | 398 kts | 232° |
| 2026-05-04 19:48 | 22.06656 | -156.67369 | 26581 ft | 396 kts | 232° |
| 2026-05-04 19:48 | 22.04306 | -156.70412 | 25966 ft | 392 kts | 232° |
| 2026-05-04 19:48 | 22.02572 | -156.72656 | 25518 ft | 390 kts | 232° |
| 2026-05-04 19:49 | 22.00849 | -156.74884 | 25078 ft | 388 kts | 232° |
| 2026-05-04 19:49 | 21.99684 | -156.76390 | 24782 ft | 386 kts | 232° |
| 2026-05-04 19:49 | 21.97383 | -156.79366 | 24203 ft | 387 kts | 232° |
| 2026-05-04 19:49 | 21.95682 | -156.81561 | 23776 ft | 384 kts | 232° |
| 2026-05-04 19:50 | 21.94546 | -156.83029 | 23492 ft | 382 kts | 232° |
| 2026-05-04 19:50 | 21.92275 | -156.85960 | 22928 ft | 379 kts | 232° |
| 2026-05-04 19:50 | 21.90597 | -156.88126 | 22515 ft | 377 kts | 232° |
| 2026-05-04 19:50 | 21.88906 | -156.90306 | 22098 ft | 375 kts | 232° |
| 2026-05-04 19:51 | 21.87251 | -156.92441 | 21692 ft | 373 kts | 232° |
| 2026-05-04 19:51 | 21.85598 | -156.94571 | 21288 ft | 371 kts | 232° |
| 2026-05-04 19:51 | 21.83939 | -156.96709 | 20897 ft | 369 kts | 232° |
| 2026-05-04 19:51 | 21.82309 | -156.98811 | 20493 ft | 368 kts | 232° |
| 2026-05-04 19:52 | 21.80673 | -157.00922 | 20087 ft | 366 kts | 232° |
| 2026-05-04 19:52 | 21.79035 | -157.03032 | 19680 ft | 362 kts | 232° |
| 2026-05-04 19:52 | 21.77432 | -157.05098 | 19268 ft | 360 kts | 232° |
| 2026-05-04 19:52 | 21.75818 | -157.07178 | 18850 ft | 359 kts | 231° |
| 2026-05-04 19:53 | 21.74229 | -157.09224 | 18440 ft | 357 kts | 231° |
| 2026-05-04 19:53 | 21.72634 | -157.11278 | 18031 ft | 355 kts | 231° |
| 2026-05-04 19:53 | 21.71048 | -157.13318 | 17627 ft | 353 kts | 231° |
| 2026-05-04 19:53 | 21.69473 | -157.15344 | 17226 ft | 351 kts | 231° |
| 2026-05-04 19:54 | 21.67911 | -157.17352 | 16830 ft | 349 kts | 231° |
| 2026-05-04 19:54 | 21.66366 | -157.19339 | 16441 ft | 347 kts | 231° |
| 2026-05-04 19:54 | 21.64812 | -157.21335 | 16051 ft | 345 kts | 231° |
| 2026-05-04 19:54 | 21.63283 | -157.23299 | 15669 ft | 343 kts | 231° |
| 2026-05-04 19:55 | 21.61745 | -157.25273 | 15285 ft | 341 kts | 231° |
| 2026-05-04 19:55 | 21.60224 | -157.27226 | 14907 ft | 339 kts | 231° |
| 2026-05-04 19:55 | 21.58723 | -157.29152 | 14534 ft | 337 kts | 231° |
| 2026-05-04 19:55 | 21.57209 | -157.31094 | 14160 ft | 336 kts | 230° |
| 2026-05-04 19:56 | 21.55706 | -157.33020 | 13789 ft | 334 kts | 230° |
| 2026-05-04 19:56 | 21.54226 | -157.34917 | 13423 ft | 333 kts | 230° |
| 2026-05-04 19:56 | 21.52725 | -157.36841 | 13054 ft | 331 kts | 230° |
| 2026-05-04 19:56 | 21.51252 | -157.38727 | 12691 ft | 329 kts | 230° |
| 2026-05-04 19:57 | 21.49794 | -157.40593 | 12333 ft | 327 kts | 230° |
| 2026-05-04 19:57 | 21.48317 | -157.42484 | 11970 ft | 326 kts | 230° |
| 2026-05-04 19:57 | 21.46868 | -157.44338 | 11615 ft | 324 kts | 230° |
| 2026-05-04 19:57 | 21.45419 | -157.46190 | 11259 ft | 323 kts | 230° |
| 2026-05-04 19:58 | 21.43962 | -157.48053 | 10902 ft | 322 kts | 230° |
| 2026-05-04 19:58 | 21.42532 | -157.49881 | 10551 ft | 321 kts | 230° |
| 2026-05-04 19:58 | 21.41082 | -157.51733 | 10219 ft | 319 kts | 229° |
| 2026-05-04 19:58 | 21.39654 | -157.53555 | 9972 ft | 319 kts | 229° |
| 2026-05-04 19:59 | 21.38232 | -157.55371 | 9699 ft | 318 kts | 229° |
| 2026-05-04 19:59 | 21.36800 | -157.57198 | 9498 ft | 316 kts | 229° |
| 2026-05-04 19:59 | 21.35872 | -157.58380 | 9496 ft | 315 kts | 229° |
| 2026-05-04 19:59 | 21.33975 | -157.60800 | 9499 ft | 317 kts | 229° |
| 2026-05-04 20:00 | 21.32546 | -157.62620 | 9496 ft | 317 kts | 229° |
| 2026-05-04 20:00 | 21.31588 | -157.63840 | 9251 ft | 322 kts | 229° |
| 2026-05-04 20:00 | 21.29689 | -157.66257 | 8904 ft | 314 kts | 229° |
| 2026-05-04 20:00 | 21.28274 | -157.68057 | 8735 ft | 315 kts | 229° |
| 2026-05-04 20:01 | 21.26957 | -157.69945 | 8559 ft | 315 kts | 240° |
| 2026-05-04 20:01 | 21.26183 | -157.72148 | 8255 ft | 318 kts | 256° |
| 2026-05-04 20:01 | 21.25714 | -157.74475 | 7756 ft | 320 kts | 257° |
| 2026-05-04 20:01 | 21.25254 | -157.76810 | 7259 ft | 321 kts | 257° |
| 2026-05-04 20:02 | 21.24799 | -157.79146 | 6996 ft | 314 kts | 257° |
| 2026-05-04 20:02 | 21.24367 | -157.81366 | 6989 ft | 300 kts | 257° |
| 2026-05-04 20:02 | 21.23949 | -157.83516 | 6987 ft | 285 kts | 257° |
| 2026-05-04 20:02 | 21.23553 | -157.85553 | 6986 ft | 272 kts | 257° |
| 2026-05-04 20:03 | 21.23173 | -157.87506 | 6986 ft | 259 kts | 257° |
| 2026-05-04 20:03 | 21.22813 | -157.89359 | 6985 ft | 246 kts | 257° |
| 2026-05-04 20:03 | 21.22471 | -157.91113 | 7003 ft | 238 kts | 257° |
| 2026-05-04 20:03 | 21.22044 | -157.92818 | 7062 ft | 237 kts | 243° |
| 2026-05-04 20:04 | 21.21143 | -157.94308 | 6956 ft | 240 kts | 232° |
| 2026-05-04 20:04 | 21.20159 | -157.95715 | 6859 ft | 226 kts | 232° |
| 2026-05-04 20:04 | 21.19215 | -157.97067 | 6597 ft | 226 kts | 232° |
| 2026-05-04 20:04 | 21.18281 | -157.98396 | 6351 ft | 223 kts | 231° |
| 2026-05-04 20:05 | 21.17349 | -157.99718 | 6128 ft | 223 kts | 231° |
| 2026-05-04 20:05 | 21.16408 | -158.01050 | 5915 ft | 223 kts | 231° |
| 2026-05-04 20:05 | 21.15463 | -158.02387 | 5713 ft | 223 kts | 231° |
| 2026-05-04 20:05 | 21.14529 | -158.03706 | 5520 ft | 223 kts | 231° |
| 2026-05-04 20:06 | 21.13585 | -158.05040 | 5331 ft | 223 kts | 231° |
| 2026-05-04 20:06 | 21.12964 | -158.05920 | 5208 ft | 223 kts | 232° |
| 2026-05-04 20:06 | 21.12336 | -158.08000 | 4892 ft | 226 kts | 273° |
| 2026-05-04 20:06 | 21.12846 | -158.09558 | 4568 ft | 222 kts | 307° |
| 2026-05-04 20:07 | 21.13980 | -158.10663 | 4332 ft | 219 kts | 326° |
| 2026-05-04 20:07 | 21.15235 | -158.11586 | 4064 ft | 218 kts | 336° |
| 2026-05-04 20:07 | 21.16676 | -158.11864 | 3759 ft | 211 kts | 9° |
| 2026-05-04 20:07 | 21.17963 | -158.11232 | 3477 ft | 203 kts | 43° |
| 2026-05-04 20:08 | 21.18912 | -158.10121 | 3247 ft | 202 kts | 51° |
| 2026-05-04 20:08 | 21.19804 | -158.08971 | 3022 ft | 199 kts | 52° |
| 2026-05-04 20:08 | 21.20683 | -158.07838 | 2998 ft | 190 kts | 52° |
| 2026-05-04 20:08 | 21.21474 | -158.06770 | 2984 ft | 178 kts | 54° |
| 2026-05-04 20:09 | 21.22212 | -158.05714 | 2986 ft | 179 kts | 54° |
| 2026-05-04 20:09 | 21.22974 | -158.04633 | 2759 ft | 180 kts | 54° |
| 2026-05-04 20:09 | 21.23467 | -158.03934 | 2630 ft | 176 kts | 54° |
| 2026-05-04 20:09 | 21.24213 | -158.02878 | 2393 ft | 178 kts | 54° |
| 2026-05-04 20:10 | 21.25215 | -158.01459 | 2067 ft | 177 kts | 54° |
| 2026-05-04 20:10 | 21.25705 | -158.00766 | 1914 ft | 171 kts | 54° |
| 2026-05-04 20:10 | 21.26401 | -157.99782 | 1656 ft | 160 kts | 54° |
| 2026-05-04 20:10 | 21.27259 | -157.98566 | 1346 ft | 146 kts | 52° |
| 2026-05-04 20:11 | 21.27848 | -157.97729 | 1152 ft | 137 kts | 52° |
| 2026-05-04 20:11 | 21.28232 | -157.97188 | 1042 ft | 137 kts | 51° |
| 2026-05-04 20:11 | 21.28816 | -157.96362 | 880 ft | 141 kts | 52° |
| 2026-05-04 20:11 | 21.29613 | -157.95236 | 632 ft | 142 kts | 52° |
| 2026-05-04 20:12 | 21.30214 | -157.94392 | 420 ft | 142 kts | 52° |
| 2026-05-04 20:12 | 21.30613 | -157.93828 | 277 ft | 141 kts | 52° |
| 2026-05-04 20:12 | 21.31383 | -157.92726 | 48 ft | 136 kts | 51° |
| 2026-05-04 20:12 | 21.31751 | -157.92212 | 22 ft | 127 kts | 51° |
| 2026-05-04 20:13 | 21.32263 | -157.91492 | 18 ft | 55 kts | 48° |
| 2026-05-04 20:13 | 21.32451 | -157.91354 | 21 ft | 19 kts | 17° |
| 2026-05-04 20:13 | 21.32541 | -157.91333 | 23 ft | 18 kts | 11° |
| 2026-05-04 20:13 | 21.32681 | -157.91306 | 28 ft | 13 kts | 8° |
| 2026-05-04 20:14 | 21.32734 | -157.91301 | 30 ft | 9 kts | 348° |
| 2026-05-04 20:14 | 21.32772 | -157.91350 | 32 ft | 10 kts | 276° |
| 2026-05-04 20:14 | 21.32771 | -157.91476 | 30 ft | 14 kts | 269° |
| 2026-05-04 20:14 | 21.32773 | -157.91599 | 30 ft | 17 kts | 271° |
| 2026-05-04 20:15 | 21.32777 | -157.91748 | 29 ft | 22 kts | 272° |
| 2026-05-04 20:15 | 21.32774 | -157.91922 | 30 ft | 23 kts | 268° |
| 2026-05-04 20:15 | 21.32775 | -157.92084 | 32 ft | 21 kts | 271° |
| 2026-05-04 20:15 | 21.32852 | -157.92180 | 35 ft | 17 kts | 338° |
| 2026-05-04 20:16 | 21.32933 | -157.92246 | 36 ft | 10 kts | 283° |
| 2026-05-04 20:16 | 21.32941 | -157.92293 | 37 ft | 2 kts | 279° |
| 2026-05-04 20:16 | 21.32943 | -157.92305 | 37 ft | 0 kts | 280° |